sensor_id;sensor_type;location;lat;lon;timestamp;P1;durP1;ratioP1;P2;durP2;ratioP2
42096;SDS011;27754;45.414;11.084;2023-04-24T00:01:21;10.80;;;8.25;;
42096;SDS011;27754;45.414;11.084;2023-04-24T00:03:48;11.98;;;9.25;;
42096;SDS011;27754;45.414;11.084;2023-04-24T00:06:16;11.23;;;8.60;;
42096;SDS011;27754;45.414;11.084;2023-04-24T00:08:43;11.82;;;8.75;;
42096;SDS011;27754;45.414;11.084;2023-04-24T00:11:10;16.88;;;9.48;;
42096;SDS011;27754;45.414;11.084;2023-04-24T00:13:37;10.80;;;8.35;;
42096;SDS011;27754;45.414;11.084;2023-04-24T00:16:04;12.68;;;9.40;;
42096;SDS011;27754;45.414;11.084;2023-04-24T00:18:32;11.00;;;9.35;;
42096;SDS011;27754;45.414;11.084;2023-04-24T00:20:59;14.23;;;10.75;;
42096;SDS011;27754;45.414;11.084;2023-04-24T00:23:26;12.40;;;9.32;;
42096;SDS011;27754;45.414;11.084;2023-04-24T00:25:53;11.85;;;9.93;;
42096;SDS011;27754;45.414;11.084;2023-04-24T00:28:20;13.88;;;10.13;;
42096;SDS011;27754;45.414;11.084;2023-04-24T00:30:47;13.38;;;10.15;;
42096;SDS011;27754;45.414;11.084;2023-04-24T00:33:14;14.35;;;10.57;;
42096;SDS011;27754;45.414;11.084;2023-04-24T00:35:41;11.90;;;10.43;;
42096;SDS011;27754;45.414;11.084;2023-04-24T00:38:09;14.57;;;10.38;;
42096;SDS011;27754;45.414;11.084;2023-04-24T00:40:36;15.57;;;11.32;;
42096;SDS011;27754;45.414;11.084;2023-04-24T00:43:03;13.73;;;10.60;;
42096;SDS011;27754;45.414;11.084;2023-04-24T00:45:30;14.65;;;11.32;;
42096;SDS011;27754;45.414;11.084;2023-04-24T00:47:57;15.98;;;11.90;;
42096;SDS011;27754;45.414;11.084;2023-04-24T00:50:26;14.85;;;10.95;;
42096;SDS011;27754;45.414;11.084;2023-04-24T00:52:55;15.23;;;11.93;;
42096;SDS011;27754;45.414;11.084;2023-04-24T00:55:21;16.05;;;11.65;;
42096;SDS011;27754;45.414;11.084;2023-04-24T00:57:48;16.05;;;12.48;;
42096;SDS011;27754;45.414;11.084;2023-04-24T01:00:16;15.35;;;12.15;;
42096;SDS011;27754;45.414;11.084;2023-04-24T01:02:43;16.75;;;13.23;;
42096;SDS011;27754;45.414;11.084;2023-04-24T01:05:12;17.80;;;13.10;;
42096;SDS011;27754;45.414;11.084;2023-04-24T01:07:43;18.40;;;13.32;;
42096;SDS011;27754;45.414;11.084;2023-04-24T01:10:12;17.63;;;13.57;;
42096;SDS011;27754;45.414;11.084;2023-04-24T01:12:40;19.95;;;13.93;;
42096;SDS011;27754;45.414;11.084;2023-04-24T01:15:07;17.58;;;13.98;;
42096;SDS011;27754;45.414;11.084;2023-04-24T01:17:35;19.08;;;13.68;;
42096;SDS011;27754;45.414;11.084;2023-04-24T01:20:02;17.25;;;13.45;;
42096;SDS011;27754;45.414;11.084;2023-04-24T01:22:34;17.40;;;13.38;;
42096;SDS011;27754;45.414;11.084;2023-04-24T01:25:02;17.77;;;13.38;;
42096;SDS011;27754;45.414;11.084;2023-04-24T01:27:29;17.67;;;13.98;;
42096;SDS011;27754;45.414;11.084;2023-04-24T01:29:56;16.10;;;12.73;;
42096;SDS011;27754;45.414;11.084;2023-04-24T01:32:24;17.98;;;13.15;;
42096;SDS011;27754;45.414;11.084;2023-04-24T01:34:52;17.73;;;12.45;;
42096;SDS011;27754;45.414;11.084;2023-04-24T01:37:19;17.67;;;12.45;;
42096;SDS011;27754;45.414;11.084;2023-04-24T01:39:46;16.80;;;12.57;;
42096;SDS011;27754;45.414;11.084;2023-04-24T01:42:13;17.17;;;12.95;;
42096;SDS011;27754;45.414;11.084;2023-04-24T01:44:41;17.67;;;13.07;;
42096;SDS011;27754;45.414;11.084;2023-04-24T01:47:08;16.35;;;12.88;;
42096;SDS011;27754;45.414;11.084;2023-04-24T01:49:35;18.27;;;12.93;;
42096;SDS011;27754;45.414;11.084;2023-04-24T01:52:04;16.15;;;14.02;;
42096;SDS011;27754;45.414;11.084;2023-04-24T01:54:33;14.68;;;12.30;;
42096;SDS011;27754;45.414;11.084;2023-04-24T01:57:00;18.38;;;13.10;;
42096;SDS011;27754;45.414;11.084;2023-04-24T01:59:28;17.83;;;13.48;;
42096;SDS011;27754;45.414;11.084;2023-04-24T02:01:57;19.80;;;12.65;;
42096;SDS011;27754;45.414;11.084;2023-04-24T02:04:24;18.25;;;11.88;;
42096;SDS011;27754;45.414;11.084;2023-04-24T02:06:51;15.20;;;11.30;;
42096;SDS011;27754;45.414;11.084;2023-04-24T02:09:18;17.45;;;11.35;;
42096;SDS011;27754;45.414;11.084;2023-04-24T02:11:44;17.88;;;11.30;;
42096;SDS011;27754;45.414;11.084;2023-04-24T02:14:11;14.75;;;11.35;;
42096;SDS011;27754;45.414;11.084;2023-04-24T02:16:39;15.68;;;12.32;;
42096;SDS011;27754;45.414;11.084;2023-04-24T02:19:06;15.30;;;11.05;;
42096;SDS011;27754;45.414;11.084;2023-04-24T02:21:33;15.20;;;11.48;;
42096;SDS011;27754;45.414;11.084;2023-04-24T02:24:00;15.23;;;11.50;;
42096;SDS011;27754;45.414;11.084;2023-04-24T02:26:27;16.70;;;12.43;;
42096;SDS011;27754;45.414;11.084;2023-04-24T02:28:54;13.90;;;11.27;;
42096;SDS011;27754;45.414;11.084;2023-04-24T02:31:21;15.32;;;11.93;;
42096;SDS011;27754;45.414;11.084;2023-04-24T02:33:48;19.33;;;13.15;;
42096;SDS011;27754;45.414;11.084;2023-04-24T02:36:15;25.13;;;13.93;;
42096;SDS011;27754;45.414;11.084;2023-04-24T02:38:42;14.82;;;12.07;;
42096;SDS011;27754;45.414;11.084;2023-04-24T02:41:11;15.95;;;13.63;;
42096;SDS011;27754;45.414;11.084;2023-04-24T02:43:38;17.17;;;12.18;;
42096;SDS011;27754;45.414;11.084;2023-04-24T02:46:05;18.58;;;13.88;;
42096;SDS011;27754;45.414;11.084;2023-04-24T02:48:32;20.65;;;15.45;;
42096;SDS011;27754;45.414;11.084;2023-04-24T02:50:59;24.50;;;14.02;;
42096;SDS011;27754;45.414;11.084;2023-04-24T02:53:26;16.38;;;13.57;;
42096;SDS011;27754;45.414;11.084;2023-04-24T02:55:53;19.17;;;13.27;;
42096;SDS011;27754;45.414;11.084;2023-04-24T02:58:20;20.27;;;14.02;;
42096;SDS011;27754;45.414;11.084;2023-04-24T03:00:47;16.65;;;12.85;;
42096;SDS011;27754;45.414;11.084;2023-04-24T03:03:14;20.25;;;13.55;;
42096;SDS011;27754;45.414;11.084;2023-04-24T03:05:41;19.55;;;14.63;;
42096;SDS011;27754;45.414;11.084;2023-04-24T03:08:08;22.13;;;14.82;;
42096;SDS011;27754;45.414;11.084;2023-04-24T03:10:36;19.70;;;13.68;;
42096;SDS011;27754;45.414;11.084;2023-04-24T03:13:03;19.15;;;15.18;;
42096;SDS011;27754;45.414;11.084;2023-04-24T03:15:30;19.75;;;15.07;;
42096;SDS011;27754;45.414;11.084;2023-04-24T03:17:57;19.40;;;14.75;;
42096;SDS011;27754;45.414;11.084;2023-04-24T03:20:24;19.80;;;15.52;;
42096;SDS011;27754;45.414;11.084;2023-04-24T03:22:53;19.65;;;14.68;;
42096;SDS011;27754;45.414;11.084;2023-04-24T03:25:20;23.75;;;16.52;;
42096;SDS011;27754;45.414;11.084;2023-04-24T03:27:47;26.67;;;16.52;;
42096;SDS011;27754;45.414;11.084;2023-04-24T03:30:50;23.23;;;17.40;;
42096;SDS011;27754;45.414;11.084;2023-04-24T03:33:18;21.90;;;16.80;;
42096;SDS011;27754;45.414;11.084;2023-04-24T03:35:58;19.98;;;17.63;;
42096;SDS011;27754;45.414;11.084;2023-04-24T03:38:26;19.08;;;15.32;;
42096;SDS011;27754;45.414;11.084;2023-04-24T03:41:11;19.08;;;14.98;;
42096;SDS011;27754;45.414;11.084;2023-04-24T03:43:44;23.48;;;15.40;;
42096;SDS011;27754;45.414;11.084;2023-04-24T03:46:11;20.70;;;14.73;;
42096;SDS011;27754;45.414;11.084;2023-04-24T03:48:43;17.98;;;14.75;;
42096;SDS011;27754;45.414;11.084;2023-04-24T03:51:12;18.58;;;14.80;;
42096;SDS011;27754;45.414;11.084;2023-04-24T03:53:43;20.40;;;15.30;;
42096;SDS011;27754;45.414;11.084;2023-04-24T03:56:11;20.63;;;15.38;;
42096;SDS011;27754;45.414;11.084;2023-04-24T03:58:40;18.67;;;14.90;;
42096;SDS011;27754;45.414;11.084;2023-04-24T04:01:07;21.10;;;14.25;;
42096;SDS011;27754;45.414;11.084;2023-04-24T04:03:39;17.35;;;13.80;;
42096;SDS011;27754;45.414;11.084;2023-04-24T04:06:07;19.45;;;14.65;;
42096;SDS011;27754;45.414;11.084;2023-04-24T04:08:34;20.80;;;14.35;;
42096;SDS011;27754;45.414;11.084;2023-04-24T04:11:01;19.13;;;13.40;;
42096;SDS011;27754;45.414;11.084;2023-04-24T04:13:31;15.25;;;12.18;;
42096;SDS011;27754;45.414;11.084;2023-04-24T04:15:58;16.98;;;13.27;;
42096;SDS011;27754;45.414;11.084;2023-04-24T04:18:25;18.17;;;12.73;;
42096;SDS011;27754;45.414;11.084;2023-04-24T04:20:52;20.10;;;12.63;;
42096;SDS011;27754;45.414;11.084;2023-04-24T04:23:19;15.10;;;12.68;;
42096;SDS011;27754;45.414;11.084;2023-04-24T04:26:04;14.45;;;12.30;;
42096;SDS011;27754;45.414;11.084;2023-04-24T04:28:46;16.80;;;13.48;;
42096;SDS011;27754;45.414;11.084;2023-04-24T04:31:14;20.55;;;14.60;;
42096;SDS011;27754;45.414;11.084;2023-04-24T04:33:41;22.58;;;15.00;;
42096;SDS011;27754;45.414;11.084;2023-04-24T04:36:08;20.27;;;14.82;;
42096;SDS011;27754;45.414;11.084;2023-04-24T04:38:41;22.42;;;15.38;;
42096;SDS011;27754;45.414;11.084;2023-04-24T04:41:34;19.65;;;14.95;;
42096;SDS011;27754;45.414;11.084;2023-04-24T04:44:02;19.23;;;14.40;;
42096;SDS011;27754;45.414;11.084;2023-04-24T04:46:31;19.83;;;15.82;;
42096;SDS011;27754;45.414;11.084;2023-04-24T04:49:19;20.75;;;17.15;;
42096;SDS011;27754;45.414;11.084;2023-04-24T04:51:48;23.23;;;16.35;;
42096;SDS011;27754;45.414;11.084;2023-04-24T04:54:14;21.63;;;15.88;;
42096;SDS011;27754;45.414;11.084;2023-04-24T04:56:42;20.15;;;16.00;;
42096;SDS011;27754;45.414;11.084;2023-04-24T04:59:09;19.00;;;14.48;;
42096;SDS011;27754;45.414;11.084;2023-04-24T05:01:38;19.42;;;14.38;;
42096;SDS011;27754;45.414;11.084;2023-04-24T05:04:07;20.00;;;15.30;;
42096;SDS011;27754;45.414;11.084;2023-04-24T05:06:34;22.30;;;16.42;;
42096;SDS011;27754;45.414;11.084;2023-04-24T05:09:01;20.85;;;14.00;;
42096;SDS011;27754;45.414;11.084;2023-04-24T05:11:45;18.88;;;14.77;;
42096;SDS011;27754;45.414;11.084;2023-04-24T05:14:12;19.10;;;15.10;;
42096;SDS011;27754;45.414;11.084;2023-04-24T05:16:41;24.00;;;17.95;;
42096;SDS011;27754;45.414;11.084;2023-04-24T05:19:09;24.85;;;17.92;;
42096;SDS011;27754;45.414;11.084;2023-04-24T05:21:42;21.55;;;17.42;;
42096;SDS011;27754;45.414;11.084;2023-04-24T05:24:10;17.38;;;14.27;;
42096;SDS011;27754;45.414;11.084;2023-04-24T05:26:46;16.23;;;10.52;;
42096;SDS011;27754;45.414;11.084;2023-04-24T05:29:17;10.43;;;8.63;;
42096;SDS011;27754;45.414;11.084;2023-04-24T05:31:46;7.20;;;6.00;;
42096;SDS011;27754;45.414;11.084;2023-04-24T05:34:13;11.63;;;7.82;;
42096;SDS011;27754;45.414;11.084;2023-04-24T05:36:44;9.60;;;6.47;;
42096;SDS011;27754;45.414;11.084;2023-04-24T05:39:11;7.57;;;5.18;;
42096;SDS011;27754;45.414;11.084;2023-04-24T05:41:38;3.55;;;2.47;;
42096;SDS011;27754;45.414;11.084;2023-04-24T05:44:04;3.55;;;1.45;;
42096;SDS011;27754;45.414;11.084;2023-04-24T05:46:31;2.88;;;1.50;;
42096;SDS011;27754;45.414;11.084;2023-04-24T05:48:58;1.20;;;0.88;;
42096;SDS011;27754;45.414;11.084;2023-04-24T05:51:26;3.45;;;1.35;;
42096;SDS011;27754;45.414;11.084;2023-04-24T05:53:53;1.92;;;1.30;;
42096;SDS011;27754;45.414;11.084;2023-04-24T05:56:20;1.92;;;1.00;;
42096;SDS011;27754;45.414;11.084;2023-04-24T05:58:49;2.58;;;1.52;;
42096;SDS011;27754;45.414;11.084;2023-04-24T06:01:16;4.50;;;1.20;;
42096;SDS011;27754;45.414;11.084;2023-04-24T06:03:46;2.10;;;1.30;;
42096;SDS011;27754;45.414;11.084;2023-04-24T06:06:13;3.53;;;1.20;;
42096;SDS011;27754;45.414;11.084;2023-04-24T06:08:41;2.97;;;1.10;;
42096;SDS011;27754;45.414;11.084;2023-04-24T06:11:10;1.55;;;0.88;;
42096;SDS011;27754;45.414;11.084;2023-04-24T06:13:39;2.03;;;0.85;;
42096;SDS011;27754;45.414;11.084;2023-04-24T06:16:27;3.85;;;0.95;;
42096;SDS011;27754;45.414;11.084;2023-04-24T06:19:00;2.85;;;1.33;;
42096;SDS011;27754;45.414;11.084;2023-04-24T06:21:28;4.45;;;1.20;;
42096;SDS011;27754;45.414;11.084;2023-04-24T06:23:55;2.65;;;1.05;;
42096;SDS011;27754;45.414;11.084;2023-04-24T06:26:22;3.13;;;1.20;;
42096;SDS011;27754;45.414;11.084;2023-04-24T06:28:51;2.80;;;1.17;;
42096;SDS011;27754;45.414;11.084;2023-04-24T06:31:20;1.52;;;0.90;;
42096;SDS011;27754;45.414;11.084;2023-04-24T06:33:48;2.40;;;0.85;;
42096;SDS011;27754;45.414;11.084;2023-04-24T06:36:15;1.58;;;0.93;;
42096;SDS011;27754;45.414;11.084;2023-04-24T06:38:43;1.63;;;0.90;;
42096;SDS011;27754;45.414;11.084;2023-04-24T06:41:10;4.10;;;1.30;;
42096;SDS011;27754;45.414;11.084;2023-04-24T06:43:37;2.38;;;1.70;;
42096;SDS011;27754;45.414;11.084;2023-04-24T06:46:04;2.20;;;1.25;;
42096;SDS011;27754;45.414;11.084;2023-04-24T06:48:31;2.17;;;1.40;;
42096;SDS011;27754;45.414;11.084;2023-04-24T06:50:58;3.25;;;1.50;;
42096;SDS011;27754;45.414;11.084;2023-04-24T06:53:25;1.67;;;1.27;;
42096;SDS011;27754;45.414;11.084;2023-04-24T06:55:52;2.28;;;1.85;;
42096;SDS011;27754;45.414;11.084;2023-04-24T06:58:19;2.92;;;2.25;;
42096;SDS011;27754;45.414;11.084;2023-04-24T07:00:46;3.33;;;2.42;;
42096;SDS011;27754;45.414;11.084;2023-04-24T07:03:13;4.15;;;2.90;;
42096;SDS011;27754;45.414;11.084;2023-04-24T07:05:40;3.83;;;2.60;;
42096;SDS011;27754;45.414;11.084;2023-04-24T07:08:07;5.03;;;3.20;;
42096;SDS011;27754;45.414;11.084;2023-04-24T07:10:37;5.32;;;3.20;;
42096;SDS011;27754;45.414;11.084;2023-04-24T07:13:04;4.22;;;3.17;;
42096;SDS011;27754;45.414;11.084;2023-04-24T07:15:33;5.95;;;3.55;;
42096;SDS011;27754;45.414;11.084;2023-04-24T07:18:00;4.78;;;3.25;;
42096;SDS011;27754;45.414;11.084;2023-04-24T07:20:30;4.53;;;3.47;;
42096;SDS011;27754;45.414;11.084;2023-04-24T07:22:57;5.25;;;3.20;;
42096;SDS011;27754;45.414;11.084;2023-04-24T07:25:24;5.35;;;3.25;;
42096;SDS011;27754;45.414;11.084;2023-04-24T07:27:51;4.60;;;3.55;;
42096;SDS011;27754;45.414;11.084;2023-04-24T07:30:19;4.55;;;3.33;;
42096;SDS011;27754;45.414;11.084;2023-04-24T07:32:46;4.47;;;3.60;;
42096;SDS011;27754;45.414;11.084;2023-04-24T07:35:13;6.28;;;3.20;;
42096;SDS011;27754;45.414;11.084;2023-04-24T07:37:40;6.40;;;3.70;;
42096;SDS011;27754;45.414;11.084;2023-04-24T07:40:14;5.40;;;3.03;;
42096;SDS011;27754;45.414;11.084;2023-04-24T07:42:42;3.25;;;2.85;;
42096;SDS011;27754;45.414;11.084;2023-04-24T07:45:10;4.88;;;3.58;;
42096;SDS011;27754;45.414;11.084;2023-04-24T07:47:37;6.30;;;3.92;;
42096;SDS011;27754;45.414;11.084;2023-04-24T07:50:06;6.97;;;4.50;;
42096;SDS011;27754;45.414;11.084;2023-04-24T07:52:33;7.38;;;5.10;;
42096;SDS011;27754;45.414;11.084;2023-04-24T07:54:59;7.38;;;5.38;;
42096;SDS011;27754;45.414;11.084;2023-04-24T07:57:28;7.55;;;6.10;;
42096;SDS011;27754;45.414;11.084;2023-04-24T07:59:55;6.57;;;5.63;;
42096;SDS011;27754;45.414;11.084;2023-04-24T08:02:22;7.38;;;6.22;;
42096;SDS011;27754;45.414;11.084;2023-04-24T08:04:53;8.70;;;6.22;;
42096;SDS011;27754;45.414;11.084;2023-04-24T08:07:21;10.20;;;7.00;;
42096;SDS011;27754;45.414;11.084;2023-04-24T08:09:48;8.38;;;6.57;;
42096;SDS011;27754;45.414;11.084;2023-04-24T08:12:15;8.52;;;7.22;;
42096;SDS011;27754;45.414;11.084;2023-04-24T08:14:41;10.32;;;7.90;;
42096;SDS011;27754;45.414;11.084;2023-04-24T08:17:09;11.40;;;8.65;;
42096;SDS011;27754;45.414;11.084;2023-04-24T08:19:36;12.15;;;8.27;;
42096;SDS011;27754;45.414;11.084;2023-04-24T08:22:03;8.93;;;7.93;;
42096;SDS011;27754;45.414;11.084;2023-04-24T08:24:30;8.90;;;6.47;;
42096;SDS011;27754;45.414;11.084;2023-04-24T08:26:57;6.82;;;5.00;;
42096;SDS011;27754;45.414;11.084;2023-04-24T08:29:24;5.20;;;3.00;;
42096;SDS011;27754;45.414;11.084;2023-04-24T08:31:51;3.85;;;1.90;;
42096;SDS011;27754;45.414;11.084;2023-04-24T08:34:21;2.47;;;1.77;;
42096;SDS011;27754;45.414;11.084;2023-04-24T08:36:48;1.98;;;1.00;;
42096;SDS011;27754;45.414;11.084;2023-04-24T08:39:15;1.27;;;0.70;;
42096;SDS011;27754;45.414;11.084;2023-04-24T08:41:43;1.70;;;0.68;;
42096;SDS011;27754;45.414;11.084;2023-04-24T08:44:12;0.47;;;0.40;;
42096;SDS011;27754;45.414;11.084;2023-04-24T08:46:45;0.95;;;0.52;;
42096;SDS011;27754;45.414;11.084;2023-04-24T08:49:14;5.20;;;0.63;;
42096;SDS011;27754;45.414;11.084;2023-04-24T08:51:45;1.20;;;0.80;;
42096;SDS011;27754;45.414;11.084;2023-04-24T08:54:13;0.73;;;0.50;;
42096;SDS011;27754;45.414;11.084;2023-04-24T08:56:40;0.82;;;0.80;;
42096;SDS011;27754;45.414;11.084;2023-04-24T08:59:11;1.00;;;0.60;;
42096;SDS011;27754;45.414;11.084;2023-04-24T09:01:38;1.45;;;0.85;;
42096;SDS011;27754;45.414;11.084;2023-04-24T09:04:07;2.25;;;0.60;;
42096;SDS011;27754;45.414;11.084;2023-04-24T09:06:41;1.35;;;0.57;;
42096;SDS011;27754;45.414;11.084;2023-04-24T09:09:09;0.88;;;0.50;;
42096;SDS011;27754;45.414;11.084;2023-04-24T09:11:37;2.40;;;0.93;;
42096;SDS011;27754;45.414;11.084;2023-04-24T09:14:04;1.33;;;0.47;;
42096;SDS011;27754;45.414;11.084;2023-04-24T09:16:33;4.57;;;0.55;;
42096;SDS011;27754;45.414;11.084;2023-04-24T09:19:02;0.60;;;0.40;;
42096;SDS011;27754;45.414;11.084;2023-04-24T09:21:33;2.60;;;0.60;;
42096;SDS011;27754;45.414;11.084;2023-04-24T09:24:02;2.72;;;0.57;;
42096;SDS011;27754;45.414;11.084;2023-04-24T09:26:36;1.98;;;0.50;;
42096;SDS011;27754;45.414;11.084;2023-04-24T09:29:03;2.60;;;0.85;;
42096;SDS011;27754;45.414;11.084;2023-04-24T09:31:31;1.73;;;0.40;;
42096;SDS011;27754;45.414;11.084;2023-04-24T09:33:59;4.00;;;0.47;;
42096;SDS011;27754;45.414;11.084;2023-04-24T09:39:00;1.50;;;0.82;;
42096;SDS011;27754;45.414;11.084;2023-04-24T09:41:29;2.00;;;0.45;;
42096;SDS011;27754;45.414;11.084;2023-04-24T09:43:56;3.72;;;0.57;;
42096;SDS011;27754;45.414;11.084;2023-04-24T09:46:30;1.92;;;0.50;;
42096;SDS011;27754;45.414;11.084;2023-04-24T09:49:02;2.08;;;0.68;;
42096;SDS011;27754;45.414;11.084;2023-04-24T09:51:35;2.10;;;0.80;;
42096;SDS011;27754;45.414;11.084;2023-04-24T09:54:13;3.22;;;0.90;;
42096;SDS011;27754;45.414;11.084;2023-04-24T09:56:48;1.40;;;0.88;;
42096;SDS011;27754;45.414;11.084;2023-04-24T09:59:17;1.95;;;1.00;;
42096;SDS011;27754;45.414;11.084;2023-04-24T10:01:46;0.80;;;0.63;;
42096;SDS011;27754;45.414;11.084;2023-04-24T10:04:15;1.75;;;0.95;;
42096;SDS011;27754;45.414;11.084;2023-04-24T10:06:47;2.47;;;0.68;;
42096;SDS011;27754;45.414;11.084;2023-04-24T10:09:15;2.08;;;0.90;;
42096;SDS011;27754;45.414;11.084;2023-04-24T10:11:44;1.98;;;0.80;;
42096;SDS011;27754;45.414;11.084;2023-04-24T10:14:15;2.47;;;0.88;;
42096;SDS011;27754;45.414;11.084;2023-04-24T10:16:45;1.38;;;0.70;;
42096;SDS011;27754;45.414;11.084;2023-04-24T10:19:13;2.00;;;1.17;;
42096;SDS011;27754;45.414;11.084;2023-04-24T10:21:42;2.72;;;1.00;;
42096;SDS011;27754;45.414;11.084;2023-04-24T10:24:16;2.40;;;1.17;;
42096;SDS011;27754;45.414;11.084;2023-04-24T10:26:45;2.55;;;1.20;;
42096;SDS011;27754;45.414;11.084;2023-04-24T10:29:12;2.38;;;1.10;;
42096;SDS011;27754;45.414;11.084;2023-04-24T10:31:41;2.90;;;1.60;;
42096;SDS011;27754;45.414;11.084;2023-04-24T10:34:12;2.38;;;1.15;;
42096;SDS011;27754;45.414;11.084;2023-04-24T10:36:46;1.70;;;1.00;;
42096;SDS011;27754;45.414;11.084;2023-04-24T10:39:17;1.42;;;1.15;;
42096;SDS011;27754;45.414;11.084;2023-04-24T10:41:53;2.17;;;1.23;;
42096;SDS011;27754;45.414;11.084;2023-04-24T10:44:23;3.10;;;1.33;;
42096;SDS011;27754;45.414;11.084;2023-04-24T10:46:54;3.80;;;1.52;;
42096;SDS011;27754;45.414;11.084;2023-04-24T10:49:28;3.78;;;1.70;;
42096;SDS011;27754;45.414;11.084;2023-04-24T10:52:01;2.13;;;1.73;;
42096;SDS011;27754;45.414;11.084;2023-04-24T10:54:35;2.70;;;1.70;;
42096;SDS011;27754;45.414;11.084;2023-04-24T10:59:46;2.35;;;1.65;;
42096;SDS011;27754;45.414;11.084;2023-04-24T11:02:14;2.78;;;1.85;;
42096;SDS011;27754;45.414;11.084;2023-04-24T11:04:42;4.25;;;1.70;;
42096;SDS011;27754;45.414;11.084;2023-04-24T11:07:09;2.92;;;1.90;;
42096;SDS011;27754;45.414;11.084;2023-04-24T11:09:37;2.95;;;1.80;;
42096;SDS011;27754;45.414;11.084;2023-04-24T11:12:07;3.45;;;1.73;;
42096;SDS011;27754;45.414;11.084;2023-04-24T11:14:59;2.55;;;1.98;;
42096;SDS011;27754;45.414;11.084;2023-04-24T11:20:07;4.90;;;1.60;;
42096;SDS011;27754;45.414;11.084;2023-04-24T11:22:53;3.63;;;2.30;;
42096;SDS011;27754;45.414;11.084;2023-04-24T11:25:22;4.70;;;1.70;;
42096;SDS011;27754;45.414;11.084;2023-04-24T11:27:49;2.70;;;1.73;;
42096;SDS011;27754;45.414;11.084;2023-04-24T11:30:17;2.58;;;1.50;;
42096;SDS011;27754;45.414;11.084;2023-04-24T11:32:49;2.78;;;1.65;;
42096;SDS011;27754;45.414;11.084;2023-04-24T11:35:21;2.47;;;1.83;;
42096;SDS011;27754;45.414;11.084;2023-04-24T11:37:52;3.58;;;2.65;;
42096;SDS011;27754;45.414;11.084;2023-04-24T11:40:39;3.55;;;2.65;;
42096;SDS011;27754;45.414;11.084;2023-04-24T11:43:07;3.35;;;2.20;;
42096;SDS011;27754;45.414;11.084;2023-04-24T11:45:35;3.08;;;2.40;;
42096;SDS011;27754;45.414;11.084;2023-04-24T11:48:02;3.20;;;1.40;;
42096;SDS011;27754;45.414;11.084;2023-04-24T11:50:30;2.67;;;1.90;;
42096;SDS011;27754;45.414;11.084;2023-04-24T11:52:57;3.78;;;2.05;;
42096;SDS011;27754;45.414;11.084;2023-04-24T11:55:27;2.33;;;1.52;;
42096;SDS011;27754;45.414;11.084;2023-04-24T11:57:56;2.75;;;1.85;;
42096;SDS011;27754;45.414;11.084;2023-04-24T12:02:59;2.17;;;1.50;;
42096;SDS011;27754;45.414;11.084;2023-04-24T12:05:34;2.97;;;1.42;;
42096;SDS011;27754;45.414;11.084;2023-04-24T12:08:02;2.10;;;1.30;;
42096;SDS011;27754;45.414;11.084;2023-04-24T12:10:30;1.88;;;1.20;;
42096;SDS011;27754;45.414;11.084;2023-04-24T12:12:58;2.08;;;1.00;;
42096;SDS011;27754;45.414;11.084;2023-04-24T12:15:26;1.40;;;0.90;;
42096;SDS011;27754;45.414;11.084;2023-04-24T12:17:53;1.38;;;0.75;;
42096;SDS011;27754;45.414;11.084;2023-04-24T12:20:29;0.85;;;0.60;;
42096;SDS011;27754;45.414;11.084;2023-04-24T12:22:58;1.75;;;0.70;;
42096;SDS011;27754;45.414;11.084;2023-04-24T12:25:29;0.93;;;0.32;;
42096;SDS011;27754;45.414;11.084;2023-04-24T12:30:34;0.80;;;0.40;;
42096;SDS011;27754;45.414;11.084;2023-04-24T12:33:04;1.02;;;0.40;;
42096;SDS011;27754;45.414;11.084;2023-04-24T12:35:32;1.02;;;0.43;;
42096;SDS011;27754;45.414;11.084;2023-04-24T12:38:06;1.02;;;0.57;;
42096;SDS011;27754;45.414;11.084;2023-04-24T12:40:42;4.15;;;0.73;;
42096;SDS011;27754;45.414;11.084;2023-04-24T12:43:17;0.73;;;0.55;;
42096;SDS011;27754;45.414;11.084;2023-04-24T12:45:46;0.40;;;0.40;;
42096;SDS011;27754;45.414;11.084;2023-04-24T12:48:14;1.48;;;0.60;;
42096;SDS011;27754;45.414;11.084;2023-04-24T12:50:41;1.75;;;0.93;;
42096;SDS011;27754;45.414;11.084;2023-04-24T12:53:12;1.00;;;0.63;;
42096;SDS011;27754;45.414;11.084;2023-04-24T12:55:40;0.98;;;0.60;;
42096;SDS011;27754;45.414;11.084;2023-04-24T12:58:07;1.60;;;0.80;;
42096;SDS011;27754;45.414;11.084;2023-04-24T13:00:34;1.80;;;0.88;;
42096;SDS011;27754;45.414;11.084;2023-04-24T13:03:01;1.65;;;1.08;;
42096;SDS011;27754;45.414;11.084;2023-04-24T13:05:29;1.60;;;1.20;;
42096;SDS011;27754;45.414;11.084;2023-04-24T13:07:57;2.45;;;1.10;;
42096;SDS011;27754;45.414;11.084;2023-04-24T13:10:24;2.95;;;1.30;;
42096;SDS011;27754;45.414;11.084;2023-04-24T13:12:51;1.15;;;0.98;;
42096;SDS011;27754;45.414;11.084;2023-04-24T13:15:18;3.78;;;1.13;;
42096;SDS011;27754;45.414;11.084;2023-04-24T13:17:45;3.22;;;1.10;;
42096;SDS011;27754;45.414;11.084;2023-04-24T13:20:12;2.80;;;1.33;;
42096;SDS011;27754;45.414;11.084;2023-04-24T13:22:39;1.48;;;1.05;;
42096;SDS011;27754;45.414;11.084;2023-04-24T13:25:06;1.77;;;0.73;;
42096;SDS011;27754;45.414;11.084;2023-04-24T13:27:33;1.17;;;0.60;;
42096;SDS011;27754;45.414;11.084;2023-04-24T13:30:00;1.52;;;0.70;;
42096;SDS011;27754;45.414;11.084;2023-04-24T13:32:27;2.20;;;0.73;;
42096;SDS011;27754;45.414;11.084;2023-04-24T13:34:56;2.97;;;0.75;;
42096;SDS011;27754;45.414;11.084;2023-04-24T13:37:23;1.20;;;0.65;;
42096;SDS011;27754;45.414;11.084;2023-04-24T13:39:50;1.38;;;0.70;;
42096;SDS011;27754;45.414;11.084;2023-04-24T13:42:17;1.08;;;0.60;;
42096;SDS011;27754;45.414;11.084;2023-04-24T13:44:46;0.80;;;0.60;;
42096;SDS011;27754;45.414;11.084;2023-04-24T13:47:13;1.10;;;0.70;;
42096;SDS011;27754;45.414;11.084;2023-04-24T13:49:40;1.10;;;0.80;;
42096;SDS011;27754;45.414;11.084;2023-04-24T13:52:07;1.23;;;0.80;;
42096;SDS011;27754;45.414;11.084;2023-04-24T13:54:34;1.35;;;0.82;;
42096;SDS011;27754;45.414;11.084;2023-04-24T13:57:01;1.70;;;0.82;;
42096;SDS011;27754;45.414;11.084;2023-04-24T13:59:29;1.58;;;0.70;;
42096;SDS011;27754;45.414;11.084;2023-04-24T14:01:56;1.88;;;0.93;;
42096;SDS011;27754;45.414;11.084;2023-04-24T14:04:22;1.95;;;0.95;;
42096;SDS011;27754;45.414;11.084;2023-04-24T14:06:50;2.70;;;1.42;;
42096;SDS011;27754;45.414;11.084;2023-04-24T14:09:17;2.15;;;1.65;;
42096;SDS011;27754;45.414;11.084;2023-04-24T14:11:44;2.67;;;1.60;;
42096;SDS011;27754;45.414;11.084;2023-04-24T14:14:11;2.15;;;1.65;;
42096;SDS011;27754;45.414;11.084;2023-04-24T14:16:38;7.10;;;2.50;;
42096;SDS011;27754;45.414;11.084;2023-04-24T14:19:05;6.53;;;2.42;;
42096;SDS011;27754;45.414;11.084;2023-04-24T14:21:32;2.15;;;1.50;;
42096;SDS011;27754;45.414;11.084;2023-04-24T14:23:59;1.80;;;1.40;;
42096;SDS011;27754;45.414;11.084;2023-04-24T14:26:26;3.63;;;1.40;;
42096;SDS011;27754;45.414;11.084;2023-04-24T14:28:53;5.70;;;2.17;;
42096;SDS011;27754;45.414;11.084;2023-04-24T14:31:36;4.93;;;1.90;;
42096;SDS011;27754;45.414;11.084;2023-04-24T14:34:03;3.95;;;1.38;;
42096;SDS011;27754;45.414;11.084;2023-04-24T14:36:30;2.28;;;1.35;;
42096;SDS011;27754;45.414;11.084;2023-04-24T14:38:57;2.20;;;1.45;;
42096;SDS011;27754;45.414;11.084;2023-04-24T14:41:24;3.00;;;1.70;;
42096;SDS011;27754;45.414;11.084;2023-04-24T14:43:51;3.45;;;1.65;;
42096;SDS011;27754;45.414;11.084;2023-04-24T14:46:18;4.63;;;1.55;;
42096;SDS011;27754;45.414;11.084;2023-04-24T14:48:45;3.75;;;1.50;;